Latest Weather Observations for East Sale

IDV60801

Issued at 9:02 pm EST Friday 22 May 2015 (issued every 30 minutes, with the page automatically refreshed every 10 minutes)

About weather observations | Map of weather stations | Latest weather observations for VIC | Other Formats
Station Details ID: 085072 Name: EAST SALE AIRPORT Lat: -38.12 Lon: 147.13 Height: 4.6 m
Data from the previous 72 hours. | See also: Recent months at East Sale
Date/Time
EST
Temp
°C
App
Temp
°C
Dew
Point
Rel
Hum
%
Delta-T
°C
Wind Press
QNH
hPa
Press
MSL
hPa
Rain
since 9 am
mm
Dir
 
Spd
km/h
Gust
km/h
Spd
kts
Gust
kts
22/09:00pm 6.7 4.0 5.5 92 0.5 W 9 13 5 7 1031.2 1031.2 0.0
22/08:00pm 8.6 5.8 7.1 90 0.7 WSW 11 15 6 8 1030.7 1030.7 0.2
22/07:30pm 8.6 5.7 6.7 88 0.9 WSW 11 15 6 8 1030.4 1030.4 0.2
22/07:00pm 9.6 6.9 7.4 86 1.0 SW 11 15 6 8 1030.2 1030.2 0.2
22/06:30pm 10.5 7.9 7.7 83 1.3 SW 11 15 6 8 1030.0 1030.0 0.2
22/06:00pm 11.3 9.1 8.0 80 1.6 WSW 9 9 5 5 1029.8 1029.8 0.2
22/05:30pm 10.9 8.6 7.6 80 1.6 W 9 11 5 6 1029.4 1029.4 0.2
22/05:00pm 12.5 11.0 8.4 76 2.0 WSW 6 7 3 4 1029.2 1029.2 0.2
22/04:30pm 13.5 11.0 8.1 70 2.7 WSW 11 17 6 9 1029.2 1029.2 0.2
22/04:00pm 13.8 11.6 7.8 67 2.9 SW 9 11 5 6 1029.0 1029.0 0.2
22/03:30pm 13.8 11.5 7.6 66 3.0 SW 9 11 5 6 1028.6 1028.6 0.2
22/03:00pm 14.5 11.6 6.6 59 3.8 SW 11 17 6 9 1028.4 1028.4 0.2
22/02:30pm 14.6 11.4 6.7 59 3.8 SW 13 17 7 9 1028.2 1028.2 0.2
22/02:00pm 15.6 12.6 6.1 53 4.6 SW 11 15 6 8 1028.2 1028.2 0.2
22/01:30pm 15.2 11.9 6.5 56 4.2 SW 13 19 7 10 1028.3 1028.3 0.2
22/01:00pm 14.4 11.2 5.0 53 4.4 SSW 11 20 6 11 1028.3 1028.3 0.2
22/12:30pm 15.8 11.8 4.8 48 5.2 SSW 15 20 8 11 1028.5 1028.5 0.2
22/12:00pm 14.7 11.7 4.1 49 4.8 SSW 9 13 5 7 1028.8 1028.8 0.2
22/11:30am 14.9 10.3 5.4 53 4.5 SSW 19 24 10 13 1029.2 1029.2 0.0
22/11:00am 14.4 10.7 6.3 58 3.9 SSW 15 20 8 11 1029.5 1029.5 0.0
22/10:30am 14.1 10.4 6.5 60 3.7 SW 15 20 8 11 1029.6 1029.6 0.0
22/10:00am 13.2 9.7 7.4 68 2.8 SW 15 19 8 10 1029.5 1029.5 0.0
22/09:00am 9.8 7.1 7.2 84 1.2 SW 11 15 6 8 1029.3 1029.3 10.2
22/08:30am 9.2 6.5 7.2 87 0.9 SW 11 15 6 8 1029.1 1029.1 10.2
22/08:00am 7.9 5.0 6.4 90 0.7 SW 11 13 6 7 1028.9 1028.9 10.2
22/07:00am 8.6 5.7 6.6 87 0.9 SW 11 11 6 6 1028.1 1028.1 10.2
22/06:30am 9.6 6.9 7.2 85 1.1 SW 11 13 6 7 1027.7 1027.7 10.2
22/06:00am 10.2 7.6 7.8 85 1.1 SSW 11 13 6 7 1027.5 1027.5 10.2
22/05:30am 9.8 7.2 7.7 87 1.0 SW 11 13 6 7 1027.1 1027.1 10.2
22/05:00am 10.2 7.7 8.0 86 1.1 SW 11 13 6 7 1026.9 1026.9 10.2
22/04:30am 10.8 8.3 8.4 85 1.2 SW 11 11 6 6 1026.9 1026.9 10.2
22/04:00am 11.1 8.7 8.8 86 1.1 SSW 11 13 6 7 1026.8 1026.8 10.2
22/03:30am 11.1 8.7 8.8 86 1.1 S 11 13 6 7 1026.6 1026.6 10.2
22/03:00am 11.4 9.1 9.0 85 1.2 S 11 15 6 8 1026.7 1026.7 10.2
22/02:30am 11.5 8.8 8.9 84 1.3 S 13 15 7 8 1026.6 1026.6 10.2
22/02:00am 9.4 6.8 7.8 90 0.8 S 11 13 6 7 1026.5 1026.5 10.2
22/01:30am 9.8 7.2 7.6 86 1.0 S 11 15 6 8 1026.3 1026.3 10.2
22/01:00am 11.5 8.7 8.5 82 1.5 SSE 13 15 7 8 1026.2 1026.2 10.2
22/12:30am 11.7 8.6 8.9 83 1.4 SSE 15 20 8 11 1026.3 1026.3 10.2
22/12:00am 12.2 8.9 9.4 83 1.4 SSE 17 24 9 13 1026.2 1026.2 10.2
 
Date/Time
EST
Temp
°C
App
Temp
°C
Dew
Point
Rel
Hum
%
Delta-T
°C
Wind Press
QNH
hPa
Press
MSL
hPa
Rain
since 9 am
mm
Dir
 
Spd
km/h
Gust
km/h
Spd
kts
Gust
kts
21/11:30pm 12.5 9.2 9.7 83 1.4 SSE 17 22 9 12 1026.2 1026.2 10.2
21/11:00pm 12.2 8.6 9.8 85 1.2 SSE 19 24 10 13 1026.0 1026.0 10.2
21/10:30pm 12.4 9.0 10.5 88 1.0 SSE 19 24 10 13 1025.9 1025.9 10.2
21/10:00pm 12.5 10.0 11.1 91 0.7 SSE 15 28 8 15 1025.8 1025.8 9.8
21/09:30pm 12.8 10.6 10.7 87 1.1 SSE 13 17 7 9 1025.7 1025.7 9.8
21/09:00pm 12.7 10.4 10.6 87 1.1 SE 13 19 7 10 1025.5 1025.5 9.8
21/08:30pm 12.8 10.6 10.9 88 1.0 SE 13 17 7 9 1025.2 1025.2 9.8
21/08:00pm 12.9 10.4 11.1 89 0.9 SE 15 22 8 12 1024.9 1024.9 9.8
21/07:30pm 12.9 10.1 11.3 90 0.8 SE 17 22 9 12 1024.6 1024.6 9.8
21/07:00pm 13.0 10.7 11.6 91 0.7 SE 15 20 8 11 1024.3 1024.3 9.8
21/06:30pm 12.6 11.2 10.8 89 0.9 SSE 9 15 5 8 1024.0 1024.0 9.8
21/06:00pm 11.8 10.4 10.9 94 0.5 SSW 9 11 5 6 1023.8 1023.8 9.8
21/05:30pm 11.3 9.9 11.0 98 0.2 WSW 9 11 5 6 1023.6 1023.6 9.8
21/05:18pm 11.2 9.4 10.7 97 0.3 WSW 11 13 6 7 1023.5 1023.5 9.8
21/05:03pm 11.3 9.5 10.8 97 0.3 W 11 13 6 7 1023.3 1023.3 9.6
21/05:00pm 11.2 9.4 10.7 97 0.3 W 11 13 6 7 1023.3 1023.3 9.6
21/04:30pm 11.1 8.5 10.6 97 0.3 W 15 20 8 11 1023.1 1023.1 8.8
21/04:00pm 11.0 7.6 10.4 96 0.3 W 19 24 10 13 1022.9 1022.9 8.2
21/03:44pm 11.1 8.1 10.5 96 0.3 W 17 24 9 13 1022.8 1022.8 7.8
21/03:30pm 11.2 8.2 10.6 96 0.3 W 17 20 9 11 1022.7 1022.7 7.0
21/03:08pm 11.2 7.8 10.4 95 0.4 W 19 26 10 14 1022.5 1022.5 5.8
21/03:00pm 11.3 7.7 10.4 94 0.5 WSW 20 28 11 15 1022.5 1022.5 5.4
21/02:30pm 11.4 6.9 10.1 92 0.7 WSW 24 32 13 17 1022.3 1022.3 5.0
21/02:00pm 11.2 7.5 10.1 93 0.6 W 20 28 11 15 1022.4 1022.4 5.0
21/01:57pm 11.2 7.4 9.9 92 0.7 W 20 28 11 15 1022.4 1022.4 5.0
21/01:30pm 11.2 7.5 10.1 93 0.6 W 20 26 11 14 1022.4 1022.4 5.0
21/01:25pm 11.2 7.4 9.9 92 0.7 W 20 30 11 16 1022.5 1022.5 4.8
21/01:08pm 11.4 7.1 9.5 88 1.0 W 22 30 12 16 1022.5 1022.5 4.4
21/01:00pm 11.5 7.3 9.8 89 0.9 W 22 32 12 17 1022.6 1022.6 4.4
21/12:30pm 11.3 - 10.0 92 0.7 - - - - - - - 4.4
21/12:00pm 10.8 7.0 9.7 93 0.6 W 20 33 11 18 1022.8 1022.8 4.4
21/11:50am 10.6 6.0 9.7 94 0.5 W 24 30 13 16 1022.8 1022.8 4.4
21/11:30am 10.5 5.9 9.6 94 0.5 W 24 33 13 18 1023.0 1023.0 4.4
21/11:20am 10.5 5.8 9.4 93 0.5 W 24 35 13 19 1023.0 1023.0 4.4
21/11:00am 10.7 6.5 9.8 94 0.5 W 22 32 12 17 1022.9 1022.9 4.0
21/10:49am 10.5 5.9 9.7 95 0.4 W 24 33 13 18 1022.9 1022.9 4.0
21/10:30am 10.3 6.0 9.5 95 0.4 W 22 30 12 16 1022.7 1022.7 4.0
21/10:22am 10.2 5.9 9.4 95 0.4 W 22 30 12 16 1022.7 1022.7 4.0
21/10:00am 10.0 4.9 9.2 95 0.4 W 26 35 14 19 1022.5 1022.5 3.6
21/09:45am 9.9 5.2 9.3 96 0.3 W 24 33 13 18 1022.4 1022.4 3.2
21/09:30am 10.1 5.4 9.3 95 0.4 W 24 32 13 17 1022.2 1022.2 1.0
21/09:05am 10.1 5.3 9.0 93 0.5 W 24 32 13 17 1022.0 1022.0 0.2
21/09:00am 10.2 5.8 9.1 93 0.5 W 22 30 12 16 1022.0 1022.0 1.6
21/08:30am 10.7 5.6 9.3 91 0.7 W 26 35 14 19 1021.5 1021.5 1.0
21/08:00am 11.0 5.4 8.9 87 1.0 W 28 39 15 21 1021.0 1021.0 0.8
21/07:30am 10.4 5.6 8.8 90 0.8 W 24 33 13 18 1020.8 1020.8 0.8
21/07:00am 10.3 5.8 8.7 90 0.8 W 22 32 12 17 1020.3 1020.3 0.8
21/06:30am 10.6 5.5 9.2 91 0.7 W 26 35 14 19 1019.8 1019.8 0.8
21/06:00am 11.2 6.6 9.8 91 0.7 W 24 32 13 17 1019.4 1019.4 0.8
21/05:31am 11.2 7.1 10.1 93 0.6 WSW 22 33 12 18 1019.1 1019.1 0.8
21/05:30am 11.2 7.5 10.1 93 0.6 WSW 20 28 11 15 1019.1 1019.1 0.8
21/05:00am 11.2 7.1 10.1 93 0.6 W 22 32 12 17 1018.8 1018.8 0.8
21/04:30am 11.6 8.6 10.5 93 0.6 W 17 24 9 13 1018.5 1018.5 0.8
21/04:00am 11.8 9.7 11.0 95 0.4 WNW 13 15 7 8 1018.2 1018.2 0.8
21/03:30am 11.9 10.2 11.3 96 0.3 WNW 11 13 6 7 1018.1 1018.1 0.8
21/03:26am 11.8 10.1 11.2 96 0.3 WNW 11 13 6 7 1018.1 1018.1 0.8
21/03:00am 11.8 10.1 11.2 96 0.3 WNW 11 13 6 7 1018.2 1018.2 0.8
21/02:48am 11.7 10.0 11.1 96 0.3 WNW 11 13 6 7 1018.1 1018.1 0.8
21/02:30am 11.8 9.7 11.2 96 0.3 WNW 13 17 7 9 1018.0 1018.0 0.8
21/02:15am 11.9 9.0 11.1 95 0.4 WNW 17 22 9 12 1017.9 1017.9 0.8
21/02:00am 12.2 9.3 11.1 93 0.6 W 17 22 9 12 1017.7 1017.7 0.6
21/01:37am 11.9 9.4 11.0 94 0.5 WSW 15 20 8 11 1017.4 1017.4 0.6
21/01:30am 11.8 9.3 11.0 95 0.4 WSW 15 20 8 11 1017.4 1017.4 0.6
21/01:13am 11.9 8.1 11.0 94 0.5 WSW 22 30 12 16 1017.3 1017.3 0.4
21/01:00am 12.4 9.2 10.1 86 1.2 WSW 17 24 9 13 1017.1 1017.1 0.0
21/12:30am 11.9 10.3 8.9 82 1.5 SW 7 9 4 5 1016.9 1016.9 0.0
21/12:00am 11.6 9.2 8.6 82 1.5 WSW 11 13 6 7 1016.8 1016.8 0.0
 
Date/Time
EST
Temp
°C
App
Temp
°C
Dew
Point
Rel
Hum
%
Delta-T
°C
Wind Press
QNH
hPa
Press
MSL
hPa
Rain
since 9 am
mm
Dir
 
Spd
km/h
Gust
km/h
Spd
kts
Gust
kts
20/11:30pm 12.2 9.8 8.5 78 1.8 SW 11 15 6 8 1016.8 1016.8 0.0
20/11:00pm 11.9 9.9 8.7 81 1.6 WSW 9 13 5 7 1016.6 1016.6 0.0
20/10:30pm 11.4 11.0 8.3 81 1.5 CALM 0 4 0 2 1016.5 1016.5 0.0
20/10:00pm 12.1 10.8 7.8 75 2.1 WNW 4 6 2 3 1016.4 1016.4 0.0
20/09:30pm 12.7 9.7 7.8 72 2.4 WNW 13 13 7 7 1016.0 1016.0 0.0
20/09:00pm 13.1 8.8 7.1 67 2.9 W 19 24 10 13 1015.8 1015.8 0.0
20/08:30pm 11.9 9.2 7.2 73 2.3 W 11 13 6 7 1015.5 1015.5 0.0
20/08:00pm 11.5 8.9 6.0 69 2.6 WSW 9 9 5 5 1015.1 1015.1 0.0
20/07:30pm 11.2 7.5 6.1 71 2.4 W 15 17 8 9 1014.7 1014.7 0.0
20/07:00pm 11.0 8.0 6.0 71 2.3 W 11 13 6 7 1014.3 1014.3 0.0
20/06:30pm 12.0 9.7 5.6 65 3.0 W 7 9 4 5 1013.9 1013.9 0.0
20/06:00pm 13.3 10.3 5.9 61 3.5 NW 11 13 6 7 1013.4 1013.4 0.0
20/05:30pm 15.1 10.7 6.4 56 4.2 WNW 19 20 10 11 1013.0 1013.0 0.0
20/05:00pm 16.1 12.1 6.5 53 4.7 WNW 17 20 9 11 1012.5 1012.5 0.0
20/04:30pm 17.5 13.1 6.7 49 5.4 NW 19 22 10 12 1012.1 1012.1 0.0
20/04:00pm 18.1 13.7 6.6 47 5.7 WNW 19 26 10 14 1011.6 1011.6 0.0
20/03:30pm 19.6 15.1 10.0 54 5.1 WNW 24 33 13 18 1011.3 1011.3 0.0
20/03:00pm 19.9 15.5 7.3 44 6.4 WNW 20 26 11 14 1011.0 1011.0 0.0
20/02:30pm 19.5 14.4 10.5 56 4.9 NW 28 35 15 19 1010.6 1010.6 0.0
20/02:00pm 20.1 14.4 8.4 47 6.1 NW 28 33 15 18 1010.3 1010.3 0.0
20/01:30pm 20.3 17.4 11.0 55 5.1 W 17 20 9 11 1010.3 1010.3 0.0
20/01:00pm 19.4 16.0 10.7 57 4.7 W 19 22 10 12 1010.2 1010.2 0.0
20/12:30pm 18.1 15.2 11.0 63 3.8 W 17 20 9 11 1010.6 1010.6 0.0
20/12:00pm 18.2 16.1 11.3 64 3.8 WSW 13 17 7 9 1010.6 1010.6 0.0
20/11:30am 18.8 17.6 11.6 63 4.0 SW 9 11 5 6 1010.7 1010.7 0.0
20/11:00am 18.3 18.6 12.3 68 3.3 W 2 7 1 4 1010.7 1010.7 0.0
20/10:30am 16.7 16.1 11.6 72 2.8 SW 6 11 3 6 1010.7 1010.7 0.0
20/10:00am 16.1 15.1 11.1 72 2.7 SSE 7 13 4 7 1010.5 1010.5 0.0
20/09:30am 15.4 14.3 10.6 73 2.5 N 7 11 4 6 1010.3 1010.3 0.0
20/09:00am 14.3 12.6 9.9 75 2.3 N 9 13 5 7 1010.2 1010.2 0.2
20/08:30am 13.9 12.4 9.1 73 2.4 N 7 11 4 6 1010.2 1010.2 0.2
20/08:00am 9.5 7.3 7.8 89 0.8 NNW 9 13 5 7 1010.1 1010.1 0.2
20/07:30am 8.6 6.6 7.1 90 0.7 N 7 11 4 6 1009.8 1009.8 0.2
20/07:00am 7.8 6.2 6.3 90 0.7 NNW 4 9 2 5 1009.7 1009.7 0.2
20/06:30am 9.2 6.5 7.2 87 0.9 NE 11 15 6 8 1009.6 1009.6 0.2
20/06:00am 9.9 6.9 7.7 86 1.1 NNE 13 17 7 9 1009.4 1009.4 0.2
20/05:30am 11.0 8.9 8.2 83 1.4 NNE 9 13 5 7 1009.3 1009.3 0.2
20/05:00am 8.8 7.1 8.2 96 0.3 NNE 7 7 4 4 1009.4 1009.4 0.2
20/04:30am 7.5 5.6 7.4 99 0.0 N 7 9 4 5 1009.3 1009.3 0.2
20/04:11am 5.8 4.1 5.7 99 0.0 ENE 4 7 2 4 1009.2 1009.2 0.2
20/04:00am 5.9 4.2 5.8 99 0.0 SSE 4 7 2 4 1009.0 1009.0 0.2
20/03:30am 6.6 5.4 6.5 99 0.0 S 2 6 1 3 1009.1 1009.1 0.2
20/03:00am 5.5 4.5 5.4 99 0.0 CALM 0 0 0 0 1009.2 1009.2 0.2
20/02:46am 5.7 4.3 5.6 99 0.0 WSW 2 6 1 3 1009.4 1009.4 0.2
20/02:42am 5.6 4.2 5.5 99 0.0 WSW 2 6 1 3 1009.3 1009.3 0.2
20/02:30am 6.3 4.7 6.2 99 0.0 WNW 4 6 2 3 1009.5 1009.5 0.2
20/02:00am 5.6 3.4 5.5 99 0.0 NNE 6 7 3 4 1009.4 1009.4 0.2
20/01:30am 5.5 3.3 5.2 98 0.1 NNE 6 7 3 4 1009.5 1009.5 0.2
20/01:00am 5.5 3.1 5.2 98 0.1 N 7 7 4 4 1009.8 1009.8 0.2
20/12:30am 6.4 4.8 6.3 99 0.0 NNW 4 7 2 4 1010.0 1010.0 0.2
20/12:00am 7.1 4.7 7.0 99 0.0 N 9 11 5 6 1010.2 1010.2 0.2
 
Date/Time
EST
Temp
°C
App
Temp
°C
Dew
Point
Rel
Hum
%
Delta-T
°C
Wind Press
QNH
hPa
Press
MSL
hPa
Rain
since 9 am
mm
Dir
 
Spd
km/h
Gust
km/h
Spd
kts
Gust
kts
19/11:30pm 7.3 5.8 7.0 98 0.1 W 4 7 2 4 1010.5 1010.5 0.2
19/11:00pm 7.5 5.7 7.2 98 0.1 NNW 6 7 3 4 1010.7 1010.7 0.2
19/10:30pm 7.3 5.4 6.9 97 0.2 NW 6 7 3 4 1010.8 1010.8 0.2
19/10:00pm 7.5 5.0 6.4 93 0.5 NNW 9 15 5 8 1010.9 1010.9 0.2
19/09:30pm 10.1 8.7 9.5 96 0.3 WNW 7 9 4 5 1010.7 1010.7 0.2
19/09:21pm 10.0 8.5 9.2 95 0.4 WNW 7 9 4 5 1010.7 1010.7 0.2

Other Formats:

Comma delimited format used in spreadsheet applications
http://www.bom.gov.au/fwo/IDV60801/IDV60801.94907.axf

JavaScript Object Notation format (JSON) in row-major order
http://www.bom.gov.au/fwo/IDV60801/IDV60801.94907.json